createdAt,value
2022-11-17T00:00:22.966Z,112
2022-11-17T00:01:23.023Z,112
2022-11-17T00:02:23.025Z,112
2022-11-17T00:03:22.979Z,112
2022-11-17T00:04:22.975Z,112
2022-11-17T00:05:22.990Z,112
2022-11-17T00:06:22.989Z,112
2022-11-17T00:07:23.030Z,112
2022-11-17T00:08:23.003Z,112
2022-11-17T00:09:22.979Z,112
2022-11-17T00:10:22.979Z,112
2022-11-17T00:11:22.988Z,112
2022-11-17T00:12:23.261Z,112
2022-11-17T00:13:22.990Z,112
2022-11-17T00:14:22.987Z,112
2022-11-17T00:15:22.984Z,112
2022-11-17T00:16:23.018Z,112
2022-11-17T00:17:23.014Z,112
2022-11-17T00:18:23.014Z,112
2022-11-17T00:19:22.981Z,112
2022-11-17T00:20:22.982Z,112
2022-11-17T00:21:22.992Z,112
2022-11-17T00:22:22.988Z,112
2022-11-17T00:23:22.992Z,112
2022-11-17T00:24:23.110Z,112
2022-11-17T00:25:22.990Z,112
2022-11-17T00:26:22.995Z,135
2022-11-17T00:27:22.997Z,135
2022-11-17T00:28:22.989Z,135
2022-11-17T00:29:22.990Z,135
2022-11-17T00:30:22.980Z,135
2022-11-17T00:31:22.999Z,135
2022-11-17T00:32:22.992Z,135
2022-11-17T00:33:22.988Z,135
2022-11-17T00:34:23.001Z,135
2022-11-17T00:35:23.007Z,135
2022-11-17T00:36:22.991Z,135
2022-11-17T00:37:22.992Z,112
2022-11-17T00:38:22.984Z,112
2022-11-17T00:39:22.997Z,112
2022-11-17T00:40:23.078Z,112
2022-11-17T00:41:23.001Z,112
2022-11-17T00:42:22.989Z,112
2022-11-17T00:43:22.988Z,112
2022-11-17T00:44:22.990Z,112
2022-11-17T00:45:22.995Z,112
2022-11-17T00:46:22.997Z,112
2022-11-17T00:47:22.993Z,112
2022-11-17T00:48:22.994Z,112
2022-11-17T00:49:22.983Z,112
2022-11-17T00:50:23.137Z,112
2022-11-17T00:51:23.002Z,112
2022-11-17T00:52:22.996Z,112
2022-11-17T00:53:22.994Z,112
2022-11-17T00:54:22.988Z,112
2022-11-17T00:55:23.069Z,112
2022-11-17T00:56:23.125Z,112
2022-11-17T00:57:22.997Z,112
2022-11-17T00:58:22.999Z,112
2022-11-17T00:59:22.999Z,112
2022-11-17T01:00:22.987Z,112
2022-11-17T01:01:23.086Z,112
2022-11-17T01:02:22.993Z,112
2022-11-17T01:03:22.998Z,112
2022-11-17T01:04:22.990Z,112
2022-11-17T01:05:22.996Z,112
2022-11-17T01:06:23.008Z,112
2022-11-17T01:07:23.043Z,112
2022-11-17T01:08:22.997Z,112
2022-11-17T01:09:23.010Z,112
2022-11-17T01:10:23.009Z,112
2022-11-17T01:11:23.006Z,112
2022-11-17T01:12:23.140Z,112
2022-11-17T01:13:23.001Z,112
2022-11-17T01:14:22.996Z,112
2022-11-17T01:15:23.006Z,112
2022-11-17T01:16:23.017Z,112
2022-11-17T01:17:22.997Z,112
2022-11-17T01:18:22.999Z,112
2022-11-17T01:19:22.995Z,112
2022-11-17T01:20:22.993Z,112
2022-11-17T01:21:23.017Z,112
2022-11-17T01:22:23.025Z,112
2022-11-17T01:23:22.998Z,112
2022-11-17T01:24:22.995Z,112
2022-11-17T01:25:23.005Z,112
2022-11-17T01:26:23.015Z,112
2022-11-17T01:27:23.010Z,112
2022-11-17T01:28:23.021Z,112
2022-11-17T01:29:23.010Z,112
2022-11-17T01:30:22.997Z,112
2022-11-17T01:31:23.024Z,112
2022-11-17T01:32:22.998Z,112
2022-11-17T01:33:22.997Z,112
2022-11-17T01:34:23.000Z,112
2022-11-17T01:35:23.013Z,112
2022-11-17T01:36:23.016Z,112
2022-11-17T01:37:23.001Z,112
2022-11-17T01:38:23.021Z,112
2022-11-17T01:39:23.014Z,112
2022-11-17T01:40:23.019Z,112
2022-11-17T01:41:23.023Z,112
2022-11-17T01:42:23.010Z,112
2022-11-17T01:43:23.012Z,112
2022-11-17T01:44:23.182Z,112
2022-11-17T01:45:23.017Z,112
2022-11-17T01:46:23.013Z,112
2022-11-17T01:47:23.020Z,112
2022-11-17T01:48:23.011Z,112
2022-11-17T01:49:23.025Z,135
2022-11-17T01:50:23.013Z,135
2022-11-17T01:51:23.025Z,135
2022-11-17T01:52:23.012Z,135
2022-11-17T01:53:23.018Z,135
2022-11-17T01:54:23.163Z,135
2022-11-17T01:55:23.026Z,135
2022-11-17T01:56:23.026Z,135
2022-11-17T01:57:23.015Z,135
2022-11-17T01:58:23.028Z,135
2022-11-17T01:59:23.018Z,135
2022-11-17T02:00:23.155Z,135
2022-11-17T02:01:23.065Z,135
2022-11-17T02:02:23.019Z,135
2022-11-17T02:03:23.026Z,135
2022-11-17T02:04:23.012Z,135
2022-11-17T02:05:23.023Z,135
2022-11-17T02:06:23.034Z,135
2022-11-17T02:07:23.130Z,135
2022-11-17T02:08:23.026Z,112
2022-11-17T02:09:23.030Z,112
2022-11-17T02:10:23.029Z,112
2022-11-17T02:11:23.028Z,112
2022-11-17T02:12:23.020Z,112
2022-11-17T02:13:23.031Z,135
2022-11-17T02:14:23.014Z,135
2022-11-17T02:15:23.019Z,135
2022-11-17T02:16:23.137Z,135
2022-11-17T02:17:23.016Z,135
2022-11-17T02:18:23.025Z,112
2022-11-17T02:19:23.014Z,135
2022-11-17T02:20:23.023Z,135
2022-11-17T02:21:23.041Z,112
2022-11-17T02:22:23.020Z,112
2022-11-17T02:23:23.019Z,112
2022-11-17T02:24:23.017Z,112
2022-11-17T02:25:26.943Z,112
2022-11-17T02:26:23.032Z,112
2022-11-17T02:27:23.032Z,112
2022-11-17T02:28:23.015Z,112
2022-11-17T02:29:23.028Z,112
2022-11-17T02:30:23.035Z,112
2022-11-17T02:31:23.030Z,112
2022-11-17T02:32:23.130Z,112
2022-11-17T02:33:23.027Z,112
2022-11-17T02:34:23.016Z,112
2022-11-17T02:35:23.029Z,135
2022-11-17T02:36:23.022Z,68
2022-11-17T02:37:23.016Z,158
2022-11-17T02:38:23.019Z,112
2022-11-17T02:39:23.019Z,112
2022-11-17T02:40:23.026Z,135
2022-11-17T02:41:23.043Z,158
2022-11-17T02:42:23.018Z,135
2022-11-17T02:43:23.019Z,135
2022-11-17T02:44:23.033Z,135
2022-11-17T02:45:23.027Z,135
2022-11-17T02:46:23.022Z,135
2022-11-17T02:47:23.021Z,68
2022-11-17T02:48:23.133Z,68
2022-11-17T02:49:23.039Z,90
2022-11-17T02:50:27.985Z,112
2022-11-17T02:51:23.032Z,135
2022-11-17T02:52:23.016Z,158
2022-11-17T02:53:23.034Z,158
2022-11-17T02:54:23.024Z,158
2022-11-17T02:55:23.021Z,135
2022-11-17T02:56:23.022Z,135
2022-11-17T02:57:23.029Z,135
2022-11-17T02:58:23.048Z,158
2022-11-17T02:59:23.022Z,158
2022-11-17T03:00:23.015Z,158
2022-11-17T03:01:23.093Z,158
2022-11-17T03:02:23.027Z,158
2022-11-17T03:03:23.030Z,158
2022-11-17T03:04:23.141Z,158
2022-11-17T03:05:23.018Z,158
2022-11-17T03:06:23.038Z,158
2022-11-17T03:07:23.068Z,158
2022-11-17T03:08:23.020Z,158
2022-11-17T03:09:23.032Z,112
2022-11-17T03:10:23.028Z,0
2022-11-17T03:11:23.057Z,135
2022-11-17T03:12:23.034Z,158
2022-11-17T03:13:23.036Z,158
2022-11-17T03:14:23.035Z,135
2022-11-17T03:15:23.037Z,158
2022-11-17T03:16:23.049Z,135
2022-11-17T03:17:23.033Z,112
2022-11-17T03:18:23.025Z,112
2022-11-17T03:19:23.033Z,112
2022-11-17T03:20:23.048Z,90
2022-11-17T03:21:23.036Z,112
2022-11-17T03:22:23.056Z,112
2022-11-17T03:23:23.047Z,112
2022-11-17T03:24:23.044Z,112
2022-11-17T03:25:23.056Z,112
2022-11-17T03:26:23.050Z,158
2022-11-17T03:27:23.033Z,112
2022-11-17T03:28:23.035Z,135
2022-11-17T03:29:23.048Z,135
2022-11-17T03:30:23.040Z,135
2022-11-17T03:31:23.048Z,112
2022-11-17T03:32:23.043Z,112
2022-11-17T03:33:23.050Z,180
2022-11-17T03:34:23.049Z,112
2022-11-17T03:35:23.037Z,112
2022-11-17T03:36:23.167Z,112
2022-11-17T03:37:23.126Z,112
2022-11-17T03:38:23.064Z,112
2022-11-17T03:39:23.050Z,135
2022-11-17T03:40:23.052Z,135
2022-11-17T03:41:23.051Z,135
2022-11-17T03:42:23.131Z,112
2022-11-17T03:43:23.034Z,112
2022-11-17T03:44:23.055Z,135
2022-11-17T03:45:23.057Z,135
2022-11-17T03:46:23.045Z,112
2022-11-17T03:47:23.047Z,112
2022-11-17T03:48:23.053Z,90
2022-11-17T03:49:23.050Z,90
2022-11-17T03:50:23.053Z,112
2022-11-17T03:51:23.065Z,112
2022-11-17T03:52:23.173Z,90
2022-11-17T03:53:23.064Z,112
2022-11-17T03:54:23.055Z,90
2022-11-17T03:55:23.049Z,90
2022-11-17T03:56:23.083Z,135
2022-11-17T03:57:23.051Z,112
2022-11-17T03:58:23.048Z,112
2022-11-17T03:59:23.074Z,112
2022-11-17T04:00:23.078Z,112
2022-11-17T04:01:23.146Z,112
2022-11-17T04:02:23.046Z,112
2022-11-17T04:03:23.052Z,135
2022-11-17T04:04:23.052Z,135
2022-11-17T04:05:23.047Z,135
2022-11-17T04:06:23.053Z,158
2022-11-17T04:07:23.127Z,135
2022-11-17T04:08:23.168Z,135
2022-11-17T04:09:24.690Z,135
2022-11-17T04:10:23.036Z,158
2022-11-17T04:11:23.064Z,158
2022-11-17T04:12:23.052Z,112
2022-11-17T04:13:23.051Z,112
2022-11-17T04:14:23.043Z,112
2022-11-17T04:15:23.056Z,135
2022-11-17T04:16:23.064Z,112
2022-11-17T04:17:23.042Z,158
2022-11-17T04:18:23.046Z,158
2022-11-17T04:19:23.065Z,112
2022-11-17T04:20:23.041Z,112
2022-11-17T04:21:23.073Z,158
2022-11-17T04:22:23.053Z,158
2022-11-17T04:23:23.051Z,158
2022-11-17T04:24:23.072Z,158
2022-11-17T04:25:23.051Z,112
2022-11-17T04:26:23.057Z,112
2022-11-17T04:27:23.043Z,112
2022-11-17T04:28:23.053Z,135
2022-11-17T04:29:23.061Z,135
2022-11-17T04:30:23.044Z,112
2022-11-17T04:31:23.080Z,135
2022-11-17T04:32:23.069Z,135
2022-11-17T04:33:23.046Z,135
2022-11-17T04:34:23.049Z,135
2022-11-17T04:35:23.058Z,112
2022-11-17T04:36:23.262Z,135
2022-11-17T04:37:23.044Z,180
2022-11-17T04:38:23.062Z,112
2022-11-17T04:39:23.063Z,112
2022-11-17T04:40:23.168Z,135
2022-11-17T04:41:23.087Z,112
2022-11-17T04:42:23.066Z,135
2022-11-17T04:43:23.069Z,135
2022-11-17T04:44:23.057Z,158
2022-11-17T04:45:23.056Z,158
2022-11-17T04:46:23.084Z,135
2022-11-17T04:47:23.068Z,135
2022-11-17T04:48:23.060Z,158
2022-11-17T04:49:23.060Z,158
2022-11-17T04:50:23.059Z,112
2022-11-17T04:51:23.085Z,135
2022-11-17T04:52:26.881Z,135
2022-11-17T04:53:23.080Z,180
2022-11-17T04:54:23.063Z,135
2022-11-17T04:55:23.068Z,158
2022-11-17T04:56:23.202Z,158
2022-11-17T04:57:23.076Z,158
2022-11-17T04:58:23.061Z,158
2022-11-17T04:59:23.053Z,158
2022-11-17T05:00:23.055Z,158
2022-11-17T05:01:23.081Z,158
2022-11-17T05:02:23.072Z,158
2022-11-17T05:03:23.070Z,158
2022-11-17T05:04:23.129Z,158
2022-11-17T05:05:23.055Z,158
2022-11-17T05:06:23.075Z,158
2022-11-17T05:07:23.136Z,112
2022-11-17T05:08:23.076Z,135
2022-11-17T05:09:23.094Z,112
2022-11-17T05:10:23.055Z,158
2022-11-17T05:11:23.144Z,112
2022-11-17T05:12:23.082Z,135
2022-11-17T05:13:23.059Z,158
2022-11-17T05:14:23.078Z,158
2022-11-17T05:15:23.058Z,112
2022-11-17T05:16:23.097Z,158
2022-11-17T05:17:23.059Z,248
2022-11-17T05:18:23.070Z,135
2022-11-17T05:19:23.060Z,135
2022-11-17T05:20:23.047Z,112
2022-11-17T05:21:23.082Z,112
2022-11-17T05:22:23.056Z,158
2022-11-17T05:23:23.064Z,135
2022-11-17T05:24:23.056Z,112
2022-11-17T05:25:23.065Z,135
2022-11-17T05:26:23.092Z,135
2022-11-17T05:27:23.730Z,112
2022-11-17T05:28:23.083Z,158
2022-11-17T05:29:23.060Z,112
2022-11-17T05:30:23.058Z,158
2022-11-17T05:31:23.078Z,112
2022-11-17T05:32:23.069Z,112
2022-11-17T05:33:23.083Z,112
2022-11-17T05:34:23.064Z,135
2022-11-17T05:35:23.074Z,135
2022-11-17T05:36:23.096Z,158
2022-11-17T05:37:23.067Z,135
2022-11-17T05:38:23.066Z,112
2022-11-17T05:39:23.083Z,112
2022-11-17T05:40:23.064Z,135
2022-11-17T05:41:23.091Z,112
2022-11-17T05:42:23.075Z,112
2022-11-17T05:43:23.084Z,158
2022-11-17T05:44:23.182Z,112
2022-11-17T05:45:23.064Z,135
2022-11-17T05:46:23.077Z,158
2022-11-17T05:47:23.062Z,112
2022-11-17T05:48:23.061Z,135
2022-11-17T05:49:23.061Z,225
2022-11-17T05:50:23.059Z,158
2022-11-17T05:51:23.107Z,158
2022-11-17T05:52:23.086Z,112
2022-11-17T05:53:23.075Z,112
2022-11-17T05:54:23.072Z,158
2022-11-17T05:55:23.071Z,90
2022-11-17T05:56:23.093Z,135
2022-11-17T05:57:23.070Z,135
2022-11-17T05:58:23.085Z,158
2022-11-17T05:59:27.437Z,112
2022-11-17T06:00:23.091Z,135
2022-11-17T06:01:23.152Z,158
2022-11-17T06:02:23.079Z,135
2022-11-17T06:03:23.083Z,158
2022-11-17T06:04:23.110Z,112
2022-11-17T06:05:23.074Z,135
2022-11-17T06:06:23.081Z,158
2022-11-17T06:07:23.187Z,158
2022-11-17T06:08:23.078Z,135
2022-11-17T06:09:23.073Z,158
2022-11-17T06:10:23.080Z,158
2022-11-17T06:11:23.089Z,158
2022-11-17T06:12:23.080Z,135
2022-11-17T06:13:23.069Z,158
2022-11-17T06:14:23.078Z,158
2022-11-17T06:15:23.072Z,158
2022-11-17T06:16:23.197Z,158
2022-11-17T06:17:23.316Z,158
2022-11-17T06:18:23.346Z,158
2022-11-17T06:19:23.078Z,158
2022-11-17T06:20:23.070Z,158
2022-11-17T06:21:23.093Z,135
2022-11-17T06:22:23.080Z,135
2022-11-17T06:23:23.086Z,135
2022-11-17T06:24:23.072Z,112
2022-11-17T06:25:23.079Z,158
2022-11-17T06:26:23.114Z,158
2022-11-17T06:27:23.082Z,158
2022-11-17T06:28:23.091Z,158
2022-11-17T06:29:23.076Z,158
2022-11-17T06:30:23.073Z,158
2022-11-17T06:31:23.091Z,158
2022-11-17T06:32:23.097Z,158
2022-11-17T06:33:23.083Z,158
2022-11-17T06:34:23.079Z,158
2022-11-17T06:35:23.078Z,158
2022-11-17T06:36:23.130Z,158
2022-11-17T06:37:23.495Z,158
2022-11-17T06:38:23.080Z,158
2022-11-17T06:39:23.092Z,158
2022-11-17T06:40:23.068Z,158
2022-11-17T06:41:23.116Z,158
2022-11-17T06:42:23.078Z,158
2022-11-17T06:43:23.075Z,158
2022-11-17T06:44:23.076Z,158
2022-11-17T06:45:23.091Z,158
2022-11-17T06:46:23.100Z,158
2022-11-17T06:47:23.076Z,158
2022-11-17T06:48:23.208Z,158
2022-11-17T06:49:23.079Z,158
2022-11-17T06:50:23.077Z,158
2022-11-17T06:51:23.112Z,158
2022-11-17T06:52:23.093Z,158
2022-11-17T06:53:23.098Z,158
2022-11-17T06:54:23.087Z,158
2022-11-17T06:55:23.094Z,135
2022-11-17T06:56:23.103Z,135
2022-11-17T06:57:23.093Z,135
2022-11-17T06:58:23.089Z,135
2022-11-17T06:59:23.081Z,135
2022-11-17T07:00:23.091Z,112
2022-11-17T07:01:23.159Z,112
2022-11-17T07:02:23.088Z,158
2022-11-17T07:03:23.089Z,158
2022-11-17T07:04:23.204Z,158
2022-11-17T07:05:23.089Z,158
2022-11-17T07:06:23.108Z,158
2022-11-17T07:07:23.152Z,158
2022-11-17T07:08:23.104Z,158
2022-11-17T07:09:23.106Z,158
2022-11-17T07:10:23.096Z,158
2022-11-17T07:11:23.115Z,158
2022-11-17T07:12:23.101Z,158
2022-11-17T07:13:23.089Z,158
2022-11-17T07:14:23.089Z,158
2022-11-17T07:15:23.084Z,158
2022-11-17T07:16:23.931Z,158
2022-11-17T07:17:23.100Z,158
2022-11-17T07:18:23.106Z,158
2022-11-17T07:19:23.104Z,158
2022-11-17T07:20:23.114Z,158
2022-11-17T07:21:23.114Z,158
2022-11-17T07:22:23.111Z,158
2022-11-17T07:23:23.130Z,158
2022-11-17T07:24:23.100Z,158
2022-11-17T07:25:23.096Z,45
2022-11-17T07:26:23.127Z,45
2022-11-17T07:27:23.100Z,45
2022-11-17T07:28:23.091Z,45
2022-11-17T07:29:23.095Z,45
2022-11-17T07:30:23.098Z,45
2022-11-17T07:31:23.114Z,135
2022-11-17T07:32:23.090Z,135
2022-11-17T07:33:23.110Z,112
2022-11-17T07:34:23.109Z,158
2022-11-17T07:35:23.099Z,158
2022-11-17T07:36:23.287Z,158
2022-11-17T07:37:23.113Z,158
2022-11-17T07:38:23.123Z,158
2022-11-17T07:39:23.109Z,158
2022-11-17T07:40:23.118Z,158
2022-11-17T07:41:23.139Z,158
2022-11-17T07:42:23.113Z,158
2022-11-17T07:43:23.106Z,158
2022-11-17T07:44:23.111Z,158
2022-11-17T07:45:24.186Z,158
2022-11-17T07:46:23.138Z,158
2022-11-17T07:47:23.119Z,158
2022-11-17T07:48:23.117Z,112
2022-11-17T07:49:23.120Z,112
2022-11-17T07:50:23.114Z,112
2022-11-17T07:51:23.135Z,112
2022-11-17T07:52:23.131Z,135
2022-11-17T07:53:23.116Z,135
2022-11-17T07:54:23.118Z,158
2022-11-17T07:55:23.113Z,135
2022-11-17T07:56:23.138Z,135
2022-11-17T07:57:23.114Z,112
2022-11-17T07:58:23.142Z,112
2022-11-17T07:59:23.117Z,158
2022-11-17T08:00:23.120Z,180
2022-11-17T08:01:23.255Z,158
2022-11-17T08:02:23.112Z,135
2022-11-17T08:03:23.213Z,112
2022-11-17T08:04:23.132Z,158
2022-11-17T08:05:23.113Z,158
2022-11-17T08:06:23.195Z,158
2022-11-17T08:07:23.174Z,135
2022-11-17T08:08:23.252Z,135
2022-11-17T08:09:23.121Z,112
2022-11-17T08:10:23.129Z,135
2022-11-17T08:11:23.174Z,135
2022-11-17T08:12:23.116Z,135
2022-11-17T08:13:23.120Z,158
2022-11-17T08:14:23.127Z,158
2022-11-17T08:15:23.122Z,112
2022-11-17T08:16:23.132Z,135
2022-11-17T08:17:23.126Z,112
2022-11-17T08:18:23.131Z,158
2022-11-17T08:19:23.125Z,158
2022-11-17T08:20:23.125Z,135
2022-11-17T08:21:23.150Z,135
2022-11-17T08:22:23.135Z,135
2022-11-17T08:23:23.134Z,112
2022-11-17T08:24:23.162Z,135
2022-11-17T08:25:23.163Z,135
2022-11-17T08:26:23.157Z,135
2022-11-17T08:27:23.129Z,158
2022-11-17T08:28:23.136Z,180
2022-11-17T08:29:23.124Z,158
2022-11-17T08:30:23.154Z,22
2022-11-17T08:31:23.182Z,135
2022-11-17T08:32:23.130Z,158
2022-11-17T08:33:23.139Z,135
2022-11-17T08:34:23.155Z,158
2022-11-17T08:35:23.131Z,158
2022-11-17T08:36:23.166Z,135
2022-11-17T08:37:23.132Z,135
2022-11-17T08:38:23.133Z,158
2022-11-17T08:39:23.134Z,112
2022-11-17T08:40:23.155Z,112
2022-11-17T08:41:23.158Z,158
2022-11-17T08:42:23.128Z,135
2022-11-17T08:43:23.161Z,158
2022-11-17T08:44:23.142Z,158
2022-11-17T08:45:23.146Z,112
2022-11-17T08:46:23.156Z,158
2022-11-17T08:47:23.142Z,158
2022-11-17T08:48:23.163Z,158
2022-11-17T08:49:23.172Z,158
2022-11-17T08:50:23.137Z,158
2022-11-17T08:51:23.181Z,112
2022-11-17T08:52:23.126Z,135
2022-11-17T08:53:23.129Z,158
2022-11-17T08:54:23.156Z,135
2022-11-17T08:55:23.186Z,135
2022-11-17T08:56:23.294Z,158
2022-11-17T08:57:23.238Z,158
2022-11-17T08:58:23.131Z,135
2022-11-17T08:59:23.141Z,112
2022-11-17T09:00:23.142Z,112
2022-11-17T09:01:23.194Z,158
2022-11-17T09:02:23.146Z,135
2022-11-17T09:03:23.139Z,135
2022-11-17T09:04:23.131Z,68
2022-11-17T09:05:23.154Z,112
2022-11-17T09:06:23.166Z,158
2022-11-17T09:07:23.212Z,135
2022-11-17T09:08:44.298Z,158
2022-11-17T09:09:23.178Z,158
2022-11-17T09:10:23.420Z,158
2022-11-17T09:11:23.192Z,135
2022-11-17T09:12:23.384Z,135
2022-11-17T09:13:23.192Z,112
2022-11-17T09:14:23.184Z,112
2022-11-17T09:15:23.186Z,112
2022-11-17T09:16:23.192Z,112
2022-11-17T09:17:23.208Z,158
2022-11-17T09:18:23.187Z,135
2022-11-17T09:19:23.193Z,135
2022-11-17T09:20:23.448Z,135
2022-11-17T09:21:23.202Z,158
2022-11-17T09:22:23.178Z,270
2022-11-17T09:23:23.182Z,270
2022-11-17T09:24:23.183Z,270
2022-11-17T09:25:23.214Z,270
2022-11-17T09:26:23.191Z,270
2022-11-17T09:27:23.187Z,270
2022-11-17T09:28:23.224Z,270
2022-11-17T09:29:23.188Z,248
2022-11-17T09:30:23.194Z,112
2022-11-17T09:31:23.613Z,112
2022-11-17T09:32:23.184Z,112
2022-11-17T09:33:23.182Z,135
2022-11-17T09:34:23.229Z,158
2022-11-17T09:35:23.182Z,158
2022-11-17T09:36:23.209Z,158
2022-11-17T09:37:23.207Z,158
2022-11-17T09:38:23.201Z,158
2022-11-17T09:39:23.187Z,158
2022-11-17T09:40:23.193Z,158
2022-11-17T09:41:23.196Z,158
2022-11-17T09:42:23.194Z,158
2022-11-17T09:43:23.217Z,135
2022-11-17T09:44:23.301Z,112
2022-11-17T09:45:23.184Z,135
2022-11-17T09:46:23.219Z,202
2022-11-17T09:47:23.191Z,158
2022-11-17T09:48:40.574Z,158
2022-11-17T09:49:23.182Z,180
2022-11-17T09:50:23.217Z,112
2022-11-17T09:51:23.206Z,158
2022-11-17T09:52:23.185Z,112
2022-11-17T09:53:23.185Z,158
2022-11-17T09:54:23.198Z,158
2022-11-17T09:55:23.183Z,158
2022-11-17T09:56:23.212Z,158
2022-11-17T09:57:23.191Z,112
2022-11-17T09:58:23.192Z,158
2022-11-17T09:59:23.197Z,158
2022-11-17T10:00:23.210Z,158
2022-11-17T10:01:23.218Z,158
2022-11-17T10:02:23.252Z,135
2022-11-17T10:03:23.191Z,158
2022-11-17T10:04:23.189Z,135
2022-11-17T10:05:23.245Z,158
2022-11-17T10:06:23.221Z,158
2022-11-17T10:07:23.246Z,225
2022-11-17T10:08:23.198Z,158
2022-11-17T10:09:25.812Z,158
2022-11-17T10:10:23.194Z,135
2022-11-17T10:11:23.209Z,158
2022-11-17T10:12:23.195Z,158
2022-11-17T10:13:23.192Z,158
2022-11-17T10:14:23.210Z,158
2022-11-17T10:15:23.200Z,158
2022-11-17T10:16:23.235Z,158
2022-11-17T10:17:23.193Z,158
2022-11-17T10:18:23.206Z,158
2022-11-17T10:19:23.240Z,158
2022-11-17T10:20:23.221Z,158
2022-11-17T10:21:23.231Z,158
2022-11-17T10:22:23.205Z,158
2022-11-17T10:23:23.210Z,158
2022-11-17T10:24:23.206Z,180
2022-11-17T10:25:23.216Z,180
2022-11-17T10:26:23.328Z,158
2022-11-17T10:27:23.200Z,158
2022-11-17T10:28:23.208Z,158
2022-11-17T10:29:23.195Z,158
2022-11-17T10:30:23.208Z,158
2022-11-17T10:31:23.210Z,158
2022-11-17T10:32:23.331Z,158
2022-11-17T10:33:23.205Z,135
2022-11-17T10:34:26.844Z,180
2022-11-17T10:35:23.230Z,158
2022-11-17T10:36:23.220Z,158
2022-11-17T10:37:23.213Z,158
2022-11-17T10:38:23.219Z,158
2022-11-17T10:39:23.207Z,158
2022-11-17T10:40:25.545Z,158
2022-11-17T10:41:23.230Z,158
2022-11-17T10:42:23.202Z,158
2022-11-17T10:43:23.220Z,158
2022-11-17T10:44:23.214Z,135
2022-11-17T10:45:23.203Z,158
2022-11-17T10:46:23.236Z,158
2022-11-17T10:47:23.204Z,112
2022-11-17T10:48:23.239Z,135
2022-11-17T10:49:23.203Z,135
2022-11-17T10:50:23.218Z,158
2022-11-17T10:51:23.243Z,158
2022-11-17T10:52:23.224Z,135
2022-11-17T10:53:23.213Z,158
2022-11-17T10:54:23.214Z,158
2022-11-17T10:55:23.201Z,135
2022-11-17T10:56:23.219Z,135
2022-11-17T10:57:23.221Z,158
2022-11-17T10:58:23.223Z,158
2022-11-17T10:59:23.213Z,158
2022-11-17T11:00:23.218Z,158
2022-11-17T11:01:25.920Z,112
2022-11-17T11:02:23.220Z,135
2022-11-17T11:03:23.235Z,135
2022-11-17T11:04:23.246Z,135
2022-11-17T11:05:23.247Z,135
2022-11-17T11:06:23.237Z,135
2022-11-17T11:07:23.279Z,135
2022-11-17T11:08:23.216Z,135
2022-11-17T11:09:23.244Z,135
2022-11-17T11:10:23.234Z,112
2022-11-17T11:11:23.250Z,112
2022-11-17T11:12:23.239Z,112
2022-11-17T11:13:23.215Z,112
2022-11-17T11:14:23.434Z,292
2022-11-17T11:15:23.219Z,292
2022-11-17T11:16:23.249Z,338
2022-11-17T11:17:23.230Z,292
2022-11-17T11:18:23.239Z,292
2022-11-17T11:19:23.214Z,315
2022-11-17T11:20:23.236Z,315
2022-11-17T11:21:23.248Z,315
2022-11-17T11:22:23.223Z,292
2022-11-17T11:23:23.235Z,270
2022-11-17T11:24:23.217Z,248
2022-11-17T11:25:23.229Z,248
2022-11-17T11:26:23.246Z,270
2022-11-17T11:27:23.223Z,338
2022-11-17T11:28:23.228Z,292
2022-11-17T11:29:23.236Z,202
2022-11-17T11:30:23.251Z,270
2022-11-17T11:31:23.241Z,292
2022-11-17T11:32:23.226Z,292
2022-11-17T11:33:23.233Z,270
2022-11-17T11:34:23.232Z,225
2022-11-17T11:35:23.240Z,270
2022-11-17T11:36:23.254Z,180
2022-11-17T11:37:23.222Z,292
2022-11-17T11:38:23.260Z,68
2022-11-17T11:39:23.228Z,270
2022-11-17T11:40:23.230Z,68
2022-11-17T11:41:23.233Z,292
2022-11-17T11:42:23.228Z,315
2022-11-17T11:43:23.234Z,248
2022-11-17T11:44:23.229Z,158
2022-11-17T11:45:23.228Z,45
2022-11-17T11:46:23.238Z,292
2022-11-17T11:47:23.226Z,292
2022-11-17T11:48:23.239Z,292
2022-11-17T11:49:23.228Z,292
2022-11-17T11:50:23.258Z,315
2022-11-17T11:51:23.252Z,0
2022-11-17T11:52:23.442Z,270
2022-11-17T11:53:23.237Z,270
2022-11-17T11:54:23.237Z,315
2022-11-17T11:55:23.253Z,292
2022-11-17T11:56:23.250Z,292
2022-11-17T11:57:23.257Z,315
2022-11-17T11:58:23.249Z,315
2022-11-17T11:59:23.289Z,315
2022-11-17T12:00:23.268Z,315
2022-11-17T12:01:23.292Z,292
2022-11-17T12:02:23.384Z,292
2022-11-17T12:03:23.255Z,292
2022-11-17T12:04:23.245Z,292
2022-11-17T12:05:23.243Z,292
2022-11-17T12:06:23.250Z,292
2022-11-17T12:07:23.321Z,292
2022-11-17T12:08:23.263Z,292
2022-11-17T12:09:23.259Z,292
2022-11-17T12:10:23.243Z,270
2022-11-17T12:11:23.264Z,158
2022-11-17T12:12:23.249Z,135
2022-11-17T12:13:23.250Z,135
2022-11-17T12:14:23.256Z,135
2022-11-17T12:15:23.262Z,135
2022-11-17T12:16:23.270Z,135
2022-11-17T12:17:23.467Z,135
2022-11-17T12:18:23.251Z,135
2022-11-17T12:19:23.267Z,135
2022-11-17T12:20:23.236Z,135
2022-11-17T12:21:23.260Z,135
2022-11-17T12:22:23.242Z,135
2022-11-17T12:23:23.250Z,135
2022-11-17T12:24:23.261Z,135
2022-11-17T12:25:23.253Z,135
2022-11-17T12:26:23.286Z,135
2022-11-17T12:27:23.247Z,135
2022-11-17T12:28:23.244Z,135
2022-11-17T12:29:23.253Z,135
2022-11-17T12:30:23.242Z,135
2022-11-17T12:31:23.267Z,135
2022-11-17T12:32:23.251Z,135
2022-11-17T12:33:23.249Z,135
2022-11-17T12:34:23.243Z,135
2022-11-17T12:35:23.286Z,22
2022-11-17T12:36:28.648Z,22
2022-11-17T12:37:23.257Z,22
2022-11-17T12:38:23.254Z,22
2022-11-17T12:39:23.257Z,22
2022-11-17T12:40:23.285Z,22
2022-11-17T12:41:23.274Z,45
2022-11-17T12:42:23.244Z,45
2022-11-17T12:43:23.268Z,225
2022-11-17T12:44:23.254Z,315
2022-11-17T12:45:23.268Z,338
2022-11-17T12:46:23.274Z,225
2022-11-17T12:47:23.265Z,158
2022-11-17T12:48:37.464Z,45
2022-11-17T12:49:23.313Z,0
2022-11-17T12:50:23.259Z,0
2022-11-17T12:51:23.289Z,0
2022-11-17T12:52:23.271Z,0
2022-11-17T12:53:23.291Z,0
2022-11-17T12:54:23.283Z,0
2022-11-17T12:55:23.292Z,0
2022-11-17T12:56:23.304Z,0
2022-11-17T12:57:23.281Z,22
2022-11-17T12:58:23.276Z,45
2022-11-17T12:59:23.278Z,68
2022-11-17T13:00:23.272Z,68
2022-11-17T13:01:23.327Z,68
2022-11-17T13:02:23.263Z,68
2022-11-17T13:03:23.267Z,248
2022-11-17T13:04:23.269Z,248
2022-11-17T13:05:23.287Z,248
2022-11-17T13:06:38.728Z,248
2022-11-17T13:07:23.310Z,248
2022-11-17T13:08:23.278Z,248
2022-11-17T13:09:23.282Z,248
2022-11-17T13:10:23.291Z,248
2022-11-17T13:11:23.331Z,248
2022-11-17T13:12:23.286Z,248
2022-11-17T13:13:23.272Z,248
2022-11-17T13:14:23.290Z,248
2022-11-17T13:15:23.284Z,135
2022-11-17T13:16:23.312Z,158
2022-11-17T13:17:23.272Z,158
2022-11-17T13:18:23.277Z,158
2022-11-17T13:19:23.287Z,135
2022-11-17T13:20:23.273Z,135
2022-11-17T13:21:23.300Z,135
2022-11-17T13:22:23.286Z,90
2022-11-17T13:23:23.284Z,90
2022-11-17T13:24:23.273Z,180
2022-11-17T13:25:23.298Z,180
2022-11-17T13:26:23.300Z,158
2022-11-17T13:27:23.291Z,158
2022-11-17T13:28:23.308Z,158
2022-11-17T13:29:23.297Z,158
2022-11-17T13:30:23.277Z,158
2022-11-17T13:31:23.296Z,158
2022-11-17T13:32:23.333Z,158
2022-11-17T13:33:23.280Z,158
2022-11-17T13:34:23.282Z,158
2022-11-17T13:35:23.293Z,158
2022-11-17T13:36:23.294Z,158
2022-11-17T13:37:23.279Z,158
2022-11-17T13:38:23.287Z,158
2022-11-17T13:39:27.210Z,158
2022-11-17T13:40:23.300Z,158
2022-11-17T13:41:23.295Z,158
2022-11-17T13:42:23.278Z,158
2022-11-17T13:43:23.301Z,158
2022-11-17T13:44:23.315Z,158
2022-11-17T13:45:23.279Z,158
2022-11-17T13:46:23.292Z,158
2022-11-17T13:47:23.276Z,158
2022-11-17T13:48:23.323Z,158